Nasser Al-Sulami

Chefscout - Al-Riyadh
3 Dez 2028
Sonntag
Verarbeitung

Persönlichkeit

Anpassungsfähigkeit (10) Ehrgeiz (13) Kontroverse (14) Loyalität (18) Druck (20) Professionalität (20) Fairness (16) Temperament (2)

Profil

Trainerstil Demokratisch
Lizenz Nationale B
Entschlossenheit 4
Menschenführung 3
Motivation 6
Disziplin 4
Arbeitszufriedenheit
100%
Ermüdung
0%
Rolle Chefscout
Gehalt 33.9K p/W
Vertrag 14.03.2029

Leistung

Verhalten Gut
Trainingseffektivität
15%
Spielerentwicklung
25%
Verletzungsprävention
25%
Taktische Umsetzung
20%

Letzte Ereignisse

Spieler begutachtet jetzt
Nahm an einer Scouting-Besprechung teil jetzt
Spieler begutachtet jetzt
Spieler begutachtet 7T her
Nahm an einer Scouting-Besprechung teil 7T her
Spieler begutachtet 7T her
Spieler begutachtet 7T her
Spieler begutachtet 7T her

Aktuell beobachtet

109
Spieler Verein Status Fähigkeit Vertrauen Beobachtet Zuletzt beobachtet Letzte Stimme
Renzo Reynaga Patronato Aktiv 125 / 120 40% 2 01.12.2028 -
Mauro Schönfeld Morón Aktiv 100 / 97 40% 1 01.12.2028 -
Chimobi Igwilo Rangers International Aktiv 93 / 98 40% 1 30.11.2028 -
Mauro Molina Estudiantes Aktiv 97 / 104 40% 1 30.11.2028 -
Juan David Rueda Alianza Petrolera Aktiv 125 / 100 40% 3 28.11.2028 -
Marcos Echeverría Temperley Aktiv 119 / 108 40% 1 28.11.2028 -
Mauro Valiente Estudiantes Aktiv 118 / 129 40% 2 27.11.2028 -
Kabiru Abdullahi Barau Aktiv 93 / 81 40% 1 27.11.2028 -
Renzo Conechny Tristán Suárez Aktiv 101 / 98 40% 3 26.11.2028 -
Matías Sosa Arsenal Aktiv 98 / 123 40% 1 26.11.2028 -
Luca Franco Arsenal Aktiv 126 / 123 40% 2 24.11.2028 -
Marco Miori Alvarado Aktiv 112 / 122 40% 2 22.11.2028 -
Lucas Pedraza Defensores Unidos Aktiv 103 / 116 40% 1 22.11.2028 -
Sebastián Cocimano Nueva Chicago Aktiv 108 / 103 40% 1 20.11.2028 -
Franco Ayunta Temperley Aktiv 107 / 101 40% 1 20.11.2028 -
Lautaro Díaz San Martín Aktiv 105 / 107 40% 2 19.11.2028 -
Abubakar Bonni Enyimba Aktiv 95 / 88 40% 1 19.11.2028 -
Juan Peinipil Madryn Aktiv 108 / 99 40% 1 18.11.2028 -
Bruno Miño Almirante Brown Aktiv 112 / 103 40% 1 17.11.2028 -
Tobias Canale Almagro Aktiv 102 / 89 40% 1 15.11.2028 -
Augusto Berrondo Tristán Suárez Aktiv 127 / 114 40% 1 12.11.2028 -
Bruno Scorza La Luz Aktiv 99 / 110 40% 1 10.11.2028 -
Joseph Arumala Ikorodu City Aktiv 79 / 83 40% 1 09.11.2028 -
Wadhah Malik Al-Wehda Aktiv 81 / 75 55% 1 17.07.2028 -
Abdulrahman Al-Dawsari Al-Shoulla Aktiv 91 / 82 55% 1 01.06.2028 -
Sattam Al-Lehiyani Al-Wehda Aktiv 85 / 94 55% 1 31.01.2028 -
Jonah James Al-Jeel Aktiv 93 / 78 40% 3 12.01.2028 -
Carlos Ramírez Zulia Aktiv 89 / 95 40% 2 12.01.2028 -
Elías Ovelar General Diaz Aktiv 109 / 102 40% 2 30.12.2027 -
Ramiro Jara Racing Aktiv 102 / 100 40% 1 27.12.2027 -
Matías Samaniego Talleres Aktiv 90 / 102 40% 2 26.12.2027 -
Tosin Olawale El-Kanemi Warriors Aktiv 89 / 80 40% 5 23.12.2027 -
Thaciano Santos Aktiv 133 / 132 40% 1 17.12.2027 -
Jaime Báez Trapani Aktiv 108 / 131 40% 1 17.12.2027 -
Joaquín Avilés Cerrito Aktiv 78 / 100 40% 2 15.12.2027 -
Prince Ibara Al-Njoom Aktiv 110 / 95 40% 2 11.12.2027 -
Ganiyu Wasiu Shooting Stars Aktiv 73 / 92 40% 2 01.12.2027 -
Camilo Machado Madryn Aktiv 104 / 113 40% 3 27.11.2027 -
Modou Niang Maritimo Aktiv 107 / 99 40% 1 22.11.2027 -
Owen Falconis Cerrito Aktiv 114 / 95 40% 2 21.11.2027 -
Alao Dabani Nasarawa United Aktiv 73 / 94 40% 1 05.11.2027 -
Augustine Nwaorisa Enyimba Aktiv 89 / 81 40% 3 23.10.2027 -
Andrés Dieppa Bogota Aktiv 98 / 97 40% 1 20.10.2027 -
Ibrahim Al-Rashid Al-Mojzel Aktiv 65 / 77 40% 3 31.05.2027 -
Meshari Al-Nemer Al-Diriyah Aktiv 97 / 101 40% 2 18.05.2027 -
Pablo Latorre Ohod Aktiv 96 / 80 40% 4 11.05.2027 -
Nafea Al-Sumairi Al-Jeel Aktiv 81 / 79 40% 4 10.05.2027 -
Thamer Al-Shahrani Damac Aktiv 72 / 78 40% 5 07.05.2027 -
Youssef Dalouzi Renaissance Aktiv 91 / 99 40% 1 29.04.2027 -
Oumar Youssouf Renaissance Aktiv 78 / 83 40% 4 19.04.2027 -
Hamza Haoudi Foggia Aktiv 103 / 109 40% 2 15.04.2027 -
Ben Waine Port Vale Aktiv 107 / 85 40% 1 15.04.2027 -
Issa Oumar AS Algoy Aktiv 79 / 74 40% 3 11.04.2027 -
Víctor Guzmán Sporting CP Aktiv 97 / 100 40% 1 08.04.2027 -
Amadou Diallo Oliveirense Aktiv 88 / 78 40% 3 29.03.2027 -
Majed Obaid Al Shaab Aktiv 87 / 89 40% 2 08.03.2027 -
Cameron Gardner Grimsby Town Aktiv 91 / 83 40% 1 05.03.2027 -
Enzo Cabrera Danubio Aktiv 113 / 122 40% 2 26.02.2027 -
Will Dickson Chesterfield Aktiv 76 / 86 40% 5 24.02.2027 -
Mahamat Adam Ali AS PSI Aktiv 88 / 82 40% 1 15.02.2027 -
Miloš Jovičić Zabbar St. Patrick Aktiv 75 / 80 40% 1 14.02.2027 -
Lucas Anjos Sporting CP Aktiv 100 / 102 40% 1 13.02.2027 -
Paul Mbong Floriana Aktiv 96 / 106 40% 1 09.02.2027 -
Gabriel Monjes Hamrun Spartans Aktiv 74 / 99 40% 1 09.02.2027 -
Damir Céter Hamrun Spartans Aktiv 103 / 115 40% 7 05.02.2027 -
Jhon Aponza Boca Juniors Aktiv 109 / 122 40% 1 05.02.2027 -
Nahuel Acosta Progreso Aktiv 114 / 105 40% 1 21.01.2027 -
Giancarlo Mosta Aktiv 87 / 96 40% 1 20.01.2027 -
Michael Adu-Poku Watford Aktiv 105 / 104 40% 1 20.01.2027 -
Luís Mota Zabbar St. Patrick Aktiv 98 / 100 40% 2 30.12.2026 -
Franklin Sasere Birkirkara Aktiv 79 / 106 40% 3 28.12.2026 -
Malick Berthé Aktiv 93 / 113 40% 1 28.12.2026 -
Luke Montebello Sliema Wanderers Aktiv 79 / 62 40% 1 24.12.2026 -
James Kirby Marsaxlokk Aktiv 73 / 72 40% 2 20.12.2026 -
Francisco Vera Hibernians Aktiv 86 / 105 40% 4 18.12.2026 -
Suleiman Mojereola US Bougouba Aktiv 82 / 76 40% 1 14.12.2026 -
Moussakoye Diallo Stade Malien Aktiv 120 / 100 40% 1 13.12.2026 -
Israel Emmanuel Hamrun Spartans Aktiv 88 / 80 40% 1 11.12.2026 -
Bruno Gomes Valletta Aktiv 113 / 113 40% 3 09.12.2026 -
Banou Cissé Real Bamako Aktiv 111 / 100 40% 1 29.11.2026 -
Robert Murić Floriana Aktiv 91 / 120 40% 3 20.11.2026 -
Alex Tanque Valletta Aktiv 79 / 67 40% 2 18.11.2026 -
Siaka Diaby Stade Malien Aktiv 105 / 91 40% 1 12.11.2026 -
Akintunde Azeez US Bougouni Aktiv 78 / 81 40% 1 10.11.2026 -
Jáder Valencia Deportes Tolima Aktiv 128 / 114 40% 1 07.11.2026 -
Théo Berdayes Sion Aktiv 103 / 91 40% 2 03.11.2026 -
Gabriel Costa Naxxar Lions Aktiv 60 / 86 40% 1 03.11.2026 -
Nathan Dlamini Blackburn Rovers Aktiv 77 / 114 40% 1 03.11.2026 -
Joaquín Rivero Instituto Aktiv 98 / 110 40% 1 02.11.2026 -
Thiago Perugini San Lorenzo Aktiv 110 / 119 40% 1 31.10.2026 -
Maximiliano Gómez Nacional Aktiv 106 / 110 40% 1 23.10.2026 -
Gaspar Duarte Rosario Central Aktiv 109 / 134 40% 2 20.10.2026 -
Uroš Đuranović Sliema Wanderers Aktiv 98 / 83 40% 2 18.10.2026 -
Maximo Ingravidi Colón Aktiv 104 / 119 40% 1 17.10.2026 -
Azeez Agboola Remo Stars Aktiv 69 / 83 40% 1 12.10.2026 -
Risilanu Ismail El-Kanemi Warriors Aktiv 96 / 103 40% 1 12.10.2026 -
Alex Morales Gil Vicente Aktiv 103 / 80 40% 1 08.10.2026 -
Joaquín Camejo Al-Ra'ed Aktiv 95 / 89 40% 1 06.10.2026 -
Diego Méndez Tacuarembo Aktiv 95 / 85 40% 1 28.09.2026 -
Genaro Rossi San Martín SJ Aktiv 101 / 91 40% 1 25.09.2026 -
Jano Franco Independiente Rivadavia Aktiv 87 / 103 40% 1 19.09.2026 -
Ignacio Giacinti Patronato Aktiv 74 / 107 40% 1 10.09.2026 -
Luka Andrade Montevideo City Torque Aktiv 102 / 115 40% 2 08.09.2026 -
Ayom Majok Zabbar St. Patrick Aktiv 77 / 88 40% 1 01.09.2026 -
Aaron Centurión Vélez Aktiv 107 / 106 40% 1 23.08.2026 -
Facundo Rodríguez Talleres Aktiv 70 / 98 40% 1 20.08.2026 -
Mamadou Ndiaye Al Jazira Aktiv 66 / 82 40% 1 19.08.2026 -
Nahuel Roldán Deportivo La Coruña Aktiv 85 / 85 40% 1 04.08.2026 -
Juan Manuel Mazzolo Maipú Aktiv 70 / 69 40% 1 04.08.2026 -